sensor_id;sensor_type;location;lat;lon;timestamp;P1;durP1;ratioP1;P2;durP2;ratioP2
21927;SDS011;11128;51.096;17.190;2023-04-09T00:04:03;37.70;;;19.23;;
21927;SDS011;11128;51.096;17.190;2023-04-09T00:09:04;37.72;;;18.67;;
21927;SDS011;11128;51.096;17.190;2023-04-09T00:14:06;36.72;;;18.63;;
21927;SDS011;11128;51.096;17.190;2023-04-09T00:19:07;38.42;;;18.88;;
21927;SDS011;11128;51.096;17.190;2023-04-09T00:24:08;37.28;;;18.77;;
21927;SDS011;11128;51.096;17.190;2023-04-09T00:29:09;38.03;;;18.05;;
21927;SDS011;11128;51.096;17.190;2023-04-09T00:34:11;34.88;;;17.52;;
21927;SDS011;11128;51.096;17.190;2023-04-09T00:39:12;36.72;;;19.27;;
21927;SDS011;11128;51.096;17.190;2023-04-09T00:44:13;39.97;;;20.48;;
21927;SDS011;11128;51.096;17.190;2023-04-09T00:49:14;37.47;;;19.05;;
21927;SDS011;11128;51.096;17.190;2023-04-09T00:54:16;38.17;;;18.88;;
21927;SDS011;11128;51.096;17.190;2023-04-09T00:59:18;36.65;;;18.63;;
21927;SDS011;11128;51.096;17.190;2023-04-09T01:04:19;37.40;;;19.13;;
21927;SDS011;11128;51.096;17.190;2023-04-09T01:09:26;42.97;;;19.95;;
21927;SDS011;11128;51.096;17.190;2023-04-09T01:14:38;41.72;;;19.80;;
21927;SDS011;11128;51.096;17.190;2023-04-09T01:19:53;37.75;;;19.65;;
21927;SDS011;11128;51.096;17.190;2023-04-09T01:25:08;40.58;;;19.15;;
21927;SDS011;11128;51.096;17.190;2023-04-09T01:30:13;40.65;;;19.60;;
21927;SDS011;11128;51.096;17.190;2023-04-09T01:35:15;42.22;;;20.58;;
21927;SDS011;11128;51.096;17.190;2023-04-09T01:40:18;45.97;;;21.55;;
21927;SDS011;11128;51.096;17.190;2023-04-09T01:45:19;44.78;;;21.48;;
21927;SDS011;11128;51.096;17.190;2023-04-09T01:50:20;44.97;;;21.70;;
21927;SDS011;11128;51.096;17.190;2023-04-09T01:55:22;48.75;;;22.88;;
21927;SDS011;11128;51.096;17.190;2023-04-09T02:00:24;46.83;;;23.13;;
21927;SDS011;11128;51.096;17.190;2023-04-09T02:05:32;46.17;;;22.10;;
21927;SDS011;11128;51.096;17.190;2023-04-09T02:10:38;47.42;;;23.17;;
21927;SDS011;11128;51.096;17.190;2023-04-09T02:15:40;49.30;;;22.98;;
21927;SDS011;11128;51.096;17.190;2023-04-09T02:20:42;46.42;;;23.25;;
21927;SDS011;11128;51.096;17.190;2023-04-09T02:25:43;49.25;;;24.08;;
21927;SDS011;11128;51.096;17.190;2023-04-09T02:30:44;47.58;;;23.00;;
21927;SDS011;11128;51.096;17.190;2023-04-09T02:35:46;51.60;;;24.02;;
21927;SDS011;11128;51.096;17.190;2023-04-09T02:40:47;46.30;;;23.35;;
21927;SDS011;11128;51.096;17.190;2023-04-09T02:45:48;51.75;;;24.35;;
21927;SDS011;11128;51.096;17.190;2023-04-09T02:50:49;50.67;;;23.42;;
21927;SDS011;11128;51.096;17.190;2023-04-09T02:55:50;48.72;;;22.42;;
21927;SDS011;11128;51.096;17.190;2023-04-09T03:00:52;47.90;;;23.23;;
21927;SDS011;11128;51.096;17.190;2023-04-09T03:05:53;47.17;;;23.20;;
21927;SDS011;11128;51.096;17.190;2023-04-09T03:10:54;49.67;;;23.92;;
21927;SDS011;11128;51.096;17.190;2023-04-09T03:15:55;57.50;;;26.92;;
21927;SDS011;11128;51.096;17.190;2023-04-09T03:20:56;51.78;;;23.88;;
21927;SDS011;11128;51.096;17.190;2023-04-09T03:26:01;51.55;;;24.17;;
21927;SDS011;11128;51.096;17.190;2023-04-09T03:31:05;48.10;;;23.95;;
21927;SDS011;11128;51.096;17.190;2023-04-09T03:36:07;54.85;;;25.17;;
21927;SDS011;11128;51.096;17.190;2023-04-09T03:41:08;48.20;;;24.38;;
21927;SDS011;11128;51.096;17.190;2023-04-09T03:46:12;55.67;;;26.17;;
21927;SDS011;11128;51.096;17.190;2023-04-09T03:51:17;52.60;;;25.23;;
21927;SDS011;11128;51.096;17.190;2023-04-09T03:56:19;54.25;;;27.10;;
21927;SDS011;11128;51.096;17.190;2023-04-09T04:01:20;51.95;;;26.25;;
21927;SDS011;11128;51.096;17.190;2023-04-09T04:06:21;50.97;;;24.45;;
21927;SDS011;11128;51.096;17.190;2023-04-09T04:11:22;53.85;;;25.00;;
21927;SDS011;11128;51.096;17.190;2023-04-09T04:16:23;57.03;;;26.92;;
21927;SDS011;11128;51.096;17.190;2023-04-09T04:21:25;55.95;;;26.73;;
21927;SDS011;11128;51.096;17.190;2023-04-09T04:26:26;53.13;;;25.70;;
21927;SDS011;11128;51.096;17.190;2023-04-09T04:31:27;54.40;;;25.13;;
21927;SDS011;11128;51.096;17.190;2023-04-09T04:36:28;54.67;;;26.77;;
21927;SDS011;11128;51.096;17.190;2023-04-09T04:41:30;59.42;;;27.55;;
21927;SDS011;11128;51.096;17.190;2023-04-09T04:46:31;56.78;;;25.55;;
21927;SDS011;11128;51.096;17.190;2023-04-09T04:51:32;55.72;;;25.63;;
21927;SDS011;11128;51.096;17.190;2023-04-09T04:56:33;61.33;;;26.80;;
21927;SDS011;11128;51.096;17.190;2023-04-09T05:01:34;57.55;;;25.63;;
21927;SDS011;11128;51.096;17.190;2023-04-09T05:06:35;55.42;;;26.00;;
21927;SDS011;11128;51.096;17.190;2023-04-09T05:11:36;54.10;;;26.77;;
21927;SDS011;11128;51.096;17.190;2023-04-09T05:16:38;60.80;;;27.73;;
21927;SDS011;11128;51.096;17.190;2023-04-09T05:21:39;61.38;;;27.40;;
21927;SDS011;11128;51.096;17.190;2023-04-09T05:26:40;59.80;;;27.20;;
21927;SDS011;11128;51.096;17.190;2023-04-09T05:31:41;61.88;;;28.98;;
21927;SDS011;11128;51.096;17.190;2023-04-09T05:36:42;57.25;;;28.63;;
21927;SDS011;11128;51.096;17.190;2023-04-09T05:41:43;58.25;;;28.58;;
21927;SDS011;11128;51.096;17.190;2023-04-09T05:46:45;57.60;;;28.73;;
21927;SDS011;11128;51.096;17.190;2023-04-09T05:51:46;64.78;;;30.05;;
21927;SDS011;11128;51.096;17.190;2023-04-09T05:56:49;59.30;;;28.77;;
21927;SDS011;11128;51.096;17.190;2023-04-09T06:01:51;64.80;;;29.27;;
21927;SDS011;11128;51.096;17.190;2023-04-09T06:06:53;58.85;;;29.13;;
21927;SDS011;11128;51.096;17.190;2023-04-09T06:11:55;60.17;;;31.08;;
21927;SDS011;11128;51.096;17.190;2023-04-09T06:16:57;64.82;;;30.63;;
21927;SDS011;11128;51.096;17.190;2023-04-09T06:21:59;68.72;;;31.02;;
21927;SDS011;11128;51.096;17.190;2023-04-09T06:27:00;62.33;;;29.48;;
21927;SDS011;11128;51.096;17.190;2023-04-09T06:32:01;61.17;;;29.00;;
21927;SDS011;11128;51.096;17.190;2023-04-09T06:37:03;62.80;;;29.08;;
21927;SDS011;11128;51.096;17.190;2023-04-09T06:42:04;62.03;;;29.60;;
21927;SDS011;11128;51.096;17.190;2023-04-09T06:47:06;62.92;;;29.40;;
21927;SDS011;11128;51.096;17.190;2023-04-09T06:52:08;69.57;;;28.75;;
21927;SDS011;11128;51.096;17.190;2023-04-09T06:57:09;65.63;;;29.15;;
21927;SDS011;11128;51.096;17.190;2023-04-09T07:02:10;64.13;;;29.58;;
21927;SDS011;11128;51.096;17.190;2023-04-09T07:07:14;63.97;;;31.50;;
21927;SDS011;11128;51.096;17.190;2023-04-09T07:12:28;67.10;;;32.28;;
21927;SDS011;11128;51.096;17.190;2023-04-09T07:17:31;59.38;;;28.48;;
21927;SDS011;11128;51.096;17.190;2023-04-09T07:22:32;67.38;;;29.13;;
21927;SDS011;11128;51.096;17.190;2023-04-09T07:27:33;58.05;;;28.92;;
21927;SDS011;11128;51.096;17.190;2023-04-09T07:32:35;64.85;;;29.33;;
21927;SDS011;11128;51.096;17.190;2023-04-09T07:37:37;61.25;;;28.45;;
21927;SDS011;11128;51.096;17.190;2023-04-09T07:42:38;56.47;;;28.58;;
21927;SDS011;11128;51.096;17.190;2023-04-09T07:47:40;56.83;;;28.60;;
21927;SDS011;11128;51.096;17.190;2023-04-09T07:52:41;61.83;;;29.40;;
21927;SDS011;11128;51.096;17.190;2023-04-09T07:57:42;64.00;;;29.00;;
21927;SDS011;11128;51.096;17.190;2023-04-09T08:02:44;63.42;;;29.25;;
21927;SDS011;11128;51.096;17.190;2023-04-09T08:07:46;57.08;;;26.92;;
21927;SDS011;11128;51.096;17.190;2023-04-09T08:12:47;56.13;;;26.77;;
21927;SDS011;11128;51.096;17.190;2023-04-09T08:17:49;63.17;;;28.08;;
21927;SDS011;11128;51.096;17.190;2023-04-09T08:22:50;57.40;;;27.00;;
21927;SDS011;11128;51.096;17.190;2023-04-09T08:27:51;56.75;;;26.90;;
21927;SDS011;11128;51.096;17.190;2023-04-09T08:32:52;56.47;;;27.58;;
21927;SDS011;11128;51.096;17.190;2023-04-09T08:37:54;57.35;;;28.80;;
21927;SDS011;11128;51.096;17.190;2023-04-09T08:42:56;58.20;;;28.35;;
21927;SDS011;11128;51.096;17.190;2023-04-09T08:47:58;59.92;;;28.40;;
21927;SDS011;11128;51.096;17.190;2023-04-09T08:53:03;59.80;;;27.33;;
21927;SDS011;11128;51.096;17.190;2023-04-09T08:58:05;52.38;;;26.73;;
21927;SDS011;11128;51.096;17.190;2023-04-09T09:03:08;59.88;;;27.85;;
21927;SDS011;11128;51.096;17.190;2023-04-09T09:08:13;60.50;;;28.15;;
21927;SDS011;11128;51.096;17.190;2023-04-09T09:18:36;54.63;;;26.70;;
21927;SDS011;11128;51.096;17.190;2023-04-09T09:23:42;53.45;;;25.88;;
21927;SDS011;11128;51.096;17.190;2023-04-09T09:28:44;61.53;;;27.65;;
21927;SDS011;11128;51.096;17.190;2023-04-09T09:33:49;61.45;;;27.48;;
21927;SDS011;11128;51.096;17.190;2023-04-09T09:38:54;56.50;;;27.65;;
21927;SDS011;11128;51.096;17.190;2023-04-09T09:43:56;63.10;;;28.23;;
21927;SDS011;11128;51.096;17.190;2023-04-09T09:48:58;60.28;;;26.60;;
21927;SDS011;11128;51.096;17.190;2023-04-09T09:53:59;58.85;;;28.10;;
21927;SDS011;11128;51.096;17.190;2023-04-09T09:59:20;60.72;;;28.52;;
21927;SDS011;11128;51.096;17.190;2023-04-09T10:04:27;56.38;;;27.52;;
21927;SDS011;11128;51.096;17.190;2023-04-09T10:09:29;63.25;;;28.55;;
21927;SDS011;11128;51.096;17.190;2023-04-09T10:14:32;55.72;;;27.42;;
21927;SDS011;11128;51.096;17.190;2023-04-09T10:19:37;62.00;;;28.58;;
21927;SDS011;11128;51.096;17.190;2023-04-09T10:24:43;54.22;;;25.77;;
21927;SDS011;11128;51.096;17.190;2023-04-09T10:29:46;58.03;;;27.77;;
21927;SDS011;11128;51.096;17.190;2023-04-09T10:34:49;58.10;;;26.88;;
21927;SDS011;11128;51.096;17.190;2023-04-09T10:39:50;57.05;;;27.05;;
21927;SDS011;11128;51.096;17.190;2023-04-09T10:45:08;56.88;;;29.25;;
21927;SDS011;11128;51.096;17.190;2023-04-09T10:50:23;58.67;;;28.63;;
21927;SDS011;11128;51.096;17.190;2023-04-09T10:55:35;55.00;;;27.13;;
21927;SDS011;11128;51.096;17.190;2023-04-09T11:00:42;56.17;;;27.27;;
21927;SDS011;11128;51.096;17.190;2023-04-09T11:05:46;52.90;;;26.67;;
21927;SDS011;11128;51.096;17.190;2023-04-09T11:10:50;55.17;;;28.27;;
21927;SDS011;11128;51.096;17.190;2023-04-09T11:15:56;55.58;;;26.50;;
21927;SDS011;11128;51.096;17.190;2023-04-09T11:21:00;55.20;;;26.52;;
21927;SDS011;11128;51.096;17.190;2023-04-09T11:26:03;54.08;;;25.55;;
21927;SDS011;11128;51.096;17.190;2023-04-09T11:31:04;52.67;;;25.92;;
21927;SDS011;11128;51.096;17.190;2023-04-09T11:36:06;54.13;;;24.55;;
21927;SDS011;11128;51.096;17.190;2023-04-09T11:41:08;46.08;;;24.67;;
21927;SDS011;11128;51.096;17.190;2023-04-09T11:46:12;46.70;;;23.75;;
21927;SDS011;11128;51.096;17.190;2023-04-09T11:51:14;52.60;;;24.63;;
21927;SDS011;11128;51.096;17.190;2023-04-09T11:56:16;48.53;;;23.65;;
21927;SDS011;11128;51.096;17.190;2023-04-09T12:01:17;45.90;;;23.08;;
21927;SDS011;11128;51.096;17.190;2023-04-09T12:06:21;53.58;;;23.83;;
21927;SDS011;11128;51.096;17.190;2023-04-09T12:11:28;47.75;;;24.58;;
21927;SDS011;11128;51.096;17.190;2023-04-09T12:16:31;49.10;;;25.05;;
21927;SDS011;11128;51.096;17.190;2023-04-09T12:21:56;53.03;;;25.38;;
21927;SDS011;11128;51.096;17.190;2023-04-09T12:26:57;43.53;;;23.40;;
21927;SDS011;11128;51.096;17.190;2023-04-09T12:31:59;51.00;;;23.65;;
21927;SDS011;11128;51.096;17.190;2023-04-09T12:37:00;48.60;;;24.08;;
21927;SDS011;11128;51.096;17.190;2023-04-09T12:42:01;47.80;;;23.17;;
21927;SDS011;11128;51.096;17.190;2023-04-09T12:47:03;46.33;;;23.05;;
21927;SDS011;11128;51.096;17.190;2023-04-09T12:52:04;46.63;;;24.10;;
21927;SDS011;11128;51.096;17.190;2023-04-09T12:57:05;48.10;;;23.40;;
21927;SDS011;11128;51.096;17.190;2023-04-09T13:02:07;50.58;;;24.13;;
21927;SDS011;11128;51.096;17.190;2023-04-09T13:07:08;47.42;;;23.58;;
21927;SDS011;11128;51.096;17.190;2023-04-09T13:12:09;49.92;;;23.58;;
21927;SDS011;11128;51.096;17.190;2023-04-09T13:17:11;52.72;;;26.30;;
21927;SDS011;11128;51.096;17.190;2023-04-09T13:22:12;50.83;;;25.30;;
21927;SDS011;11128;51.096;17.190;2023-04-09T13:27:13;48.83;;;24.85;;
21927;SDS011;11128;51.096;17.190;2023-04-09T13:32:15;52.17;;;25.83;;
21927;SDS011;11128;51.096;17.190;2023-04-09T13:37:17;49.38;;;23.73;;
21927;SDS011;11128;51.096;17.190;2023-04-09T13:42:19;48.90;;;25.00;;
21927;SDS011;11128;51.096;17.190;2023-04-09T13:47:20;53.45;;;26.00;;
21927;SDS011;11128;51.096;17.190;2023-04-09T13:52:23;54.22;;;25.55;;
21927;SDS011;11128;51.096;17.190;2023-04-09T13:57:24;52.10;;;27.48;;
21927;SDS011;11128;51.096;17.190;2023-04-09T14:02:25;51.47;;;25.85;;
21927;SDS011;11128;51.096;17.190;2023-04-09T14:07:28;48.22;;;24.67;;
21927;SDS011;11128;51.096;17.190;2023-04-09T14:12:29;55.58;;;26.30;;
21927;SDS011;11128;51.096;17.190;2023-04-09T14:17:30;55.38;;;26.63;;
21927;SDS011;11128;51.096;17.190;2023-04-09T14:22:31;51.97;;;25.23;;
21927;SDS011;11128;51.096;17.190;2023-04-09T14:27:33;53.95;;;27.15;;
21927;SDS011;11128;51.096;17.190;2023-04-09T14:32:34;59.75;;;28.38;;
21927;SDS011;11128;51.096;17.190;2023-04-09T14:37:35;59.75;;;29.33;;
21927;SDS011;11128;51.096;17.190;2023-04-09T14:42:39;61.10;;;26.95;;
21927;SDS011;11128;51.096;17.190;2023-04-09T14:47:41;54.63;;;26.17;;
21927;SDS011;11128;51.096;17.190;2023-04-09T14:52:43;57.75;;;28.83;;
21927;SDS011;11128;51.096;17.190;2023-04-09T14:57:45;59.83;;;28.90;;
21927;SDS011;11128;51.096;17.190;2023-04-09T15:02:46;58.50;;;28.25;;
21927;SDS011;11128;51.096;17.190;2023-04-09T15:07:47;62.92;;;30.70;;
21927;SDS011;11128;51.096;17.190;2023-04-09T15:12:49;60.08;;;27.75;;
21927;SDS011;11128;51.096;17.190;2023-04-09T15:17:50;59.33;;;28.98;;
21927;SDS011;11128;51.096;17.190;2023-04-09T15:22:52;59.45;;;28.50;;
21927;SDS011;11128;51.096;17.190;2023-04-09T15:27:53;59.13;;;27.70;;
21927;SDS011;11128;51.096;17.190;2023-04-09T15:32:54;55.15;;;27.25;;
21927;SDS011;11128;51.096;17.190;2023-04-09T15:37:55;63.17;;;28.08;;
21927;SDS011;11128;51.096;17.190;2023-04-09T15:42:57;63.95;;;28.60;;
21927;SDS011;11128;51.096;17.190;2023-04-09T15:47:58;61.83;;;28.10;;
21927;SDS011;11128;51.096;17.190;2023-04-09T15:52:59;61.33;;;28.50;;
21927;SDS011;11128;51.096;17.190;2023-04-09T15:58:00;62.17;;;27.85;;
21927;SDS011;11128;51.096;17.190;2023-04-09T16:03:01;65.40;;;28.33;;
21927;SDS011;11128;51.096;17.190;2023-04-09T16:08:02;61.65;;;29.33;;
21927;SDS011;11128;51.096;17.190;2023-04-09T16:13:04;63.58;;;28.88;;
21927;SDS011;11128;51.096;17.190;2023-04-09T16:18:06;65.22;;;29.55;;
21927;SDS011;11128;51.096;17.190;2023-04-09T16:23:07;60.35;;;30.17;;
21927;SDS011;11128;51.096;17.190;2023-04-09T16:28:08;71.65;;;33.15;;
21927;SDS011;11128;51.096;17.190;2023-04-09T16:33:09;74.63;;;34.78;;
21927;SDS011;11128;51.096;17.190;2023-04-09T16:38:12;77.68;;;36.85;;
21927;SDS011;11128;51.096;17.190;2023-04-09T16:43:13;78.43;;;35.35;;
21927;SDS011;11128;51.096;17.190;2023-04-09T16:48:14;82.25;;;36.80;;
21927;SDS011;11128;51.096;17.190;2023-04-09T16:53:16;68.90;;;31.98;;
21927;SDS011;11128;51.096;17.190;2023-04-09T16:58:17;74.43;;;33.78;;
21927;SDS011;11128;51.096;17.190;2023-04-09T17:03:18;81.18;;;35.20;;
21927;SDS011;11128;51.096;17.190;2023-04-09T17:08:19;79.70;;;35.72;;
21927;SDS011;11128;51.096;17.190;2023-04-09T17:13:30;73.80;;;33.90;;
21927;SDS011;11128;51.096;17.190;2023-04-09T17:18:32;73.78;;;32.65;;
21927;SDS011;11128;51.096;17.190;2023-04-09T17:23:34;82.03;;;35.08;;
21927;SDS011;11128;51.096;17.190;2023-04-09T17:28:35;75.75;;;33.17;;
21927;SDS011;11128;51.096;17.190;2023-04-09T17:33:36;82.13;;;35.15;;
21927;SDS011;11128;51.096;17.190;2023-04-09T17:38:38;78.07;;;33.88;;
21927;SDS011;11128;51.096;17.190;2023-04-09T17:43:39;78.55;;;33.97;;
21927;SDS011;11128;51.096;17.190;2023-04-09T17:48:40;75.45;;;33.50;;
21927;SDS011;11128;51.096;17.190;2023-04-09T17:53:42;75.97;;;32.53;;
21927;SDS011;11128;51.096;17.190;2023-04-09T17:58:43;73.90;;;31.65;;
21927;SDS011;11128;51.096;17.190;2023-04-09T18:03:44;71.20;;;31.55;;
21927;SDS011;11128;51.096;17.190;2023-04-09T18:08:46;79.45;;;36.25;;
21927;SDS011;11128;51.096;17.190;2023-04-09T18:13:48;75.10;;;33.28;;
21927;SDS011;11128;51.096;17.190;2023-04-09T18:18:50;80.95;;;33.63;;
21927;SDS011;11128;51.096;17.190;2023-04-09T18:23:51;66.28;;;30.55;;
21927;SDS011;11128;51.096;17.190;2023-04-09T18:28:52;108.75;;;51.65;;
21927;SDS011;11128;51.096;17.190;2023-04-09T18:33:54;87.57;;;40.03;;
21927;SDS011;11128;51.096;17.190;2023-04-09T18:38:55;96.93;;;43.70;;
21927;SDS011;11128;51.096;17.190;2023-04-09T18:43:57;80.72;;;36.38;;
21927;SDS011;11128;51.096;17.190;2023-04-09T18:48:59;77.30;;;32.85;;
21927;SDS011;11128;51.096;17.190;2023-04-09T18:54:01;82.85;;;34.70;;
21927;SDS011;11128;51.096;17.190;2023-04-09T18:59:02;74.65;;;33.85;;
21927;SDS011;11128;51.096;17.190;2023-04-09T19:04:03;78.30;;;35.22;;
21927;SDS011;11128;51.096;17.190;2023-04-09T19:09:04;77.75;;;36.53;;
21927;SDS011;11128;51.096;17.190;2023-04-09T19:14:06;76.95;;;37.00;;
21927;SDS011;11128;51.096;17.190;2023-04-09T19:19:07;82.75;;;36.80;;
21927;SDS011;11128;51.096;17.190;2023-04-09T19:24:08;75.65;;;33.65;;
21927;SDS011;11128;51.096;17.190;2023-04-09T19:29:10;78.05;;;32.50;;
21927;SDS011;11128;51.096;17.190;2023-04-09T19:34:11;75.72;;;31.83;;
21927;SDS011;11128;51.096;17.190;2023-04-09T19:39:12;81.85;;;34.50;;
21927;SDS011;11128;51.096;17.190;2023-04-09T19:44:14;86.30;;;35.92;;
21927;SDS011;11128;51.096;17.190;2023-04-09T19:49:16;81.63;;;35.78;;
21927;SDS011;11128;51.096;17.190;2023-04-09T19:54:17;74.63;;;33.08;;
21927;SDS011;11128;51.096;17.190;2023-04-09T19:59:18;80.15;;;35.10;;
21927;SDS011;11128;51.096;17.190;2023-04-09T20:04:20;76.13;;;32.47;;
21927;SDS011;11128;51.096;17.190;2023-04-09T20:09:24;77.35;;;32.20;;
21927;SDS011;11128;51.096;17.190;2023-04-09T20:14:27;73.05;;;30.98;;
21927;SDS011;11128;51.096;17.190;2023-04-09T20:19:28;61.45;;;29.85;;
21927;SDS011;11128;51.096;17.190;2023-04-09T20:24:29;74.35;;;31.20;;
21927;SDS011;11128;51.096;17.190;2023-04-09T20:29:30;77.47;;;33.00;;
21927;SDS011;11128;51.096;17.190;2023-04-09T20:34:31;76.30;;;33.45;;
21927;SDS011;11128;51.096;17.190;2023-04-09T20:39:32;65.80;;;30.50;;
21927;SDS011;11128;51.096;17.190;2023-04-09T20:44:33;72.68;;;31.52;;
21927;SDS011;11128;51.096;17.190;2023-04-09T20:49:35;74.65;;;32.42;;
21927;SDS011;11128;51.096;17.190;2023-04-09T20:54:36;84.93;;;37.17;;
21927;SDS011;11128;51.096;17.190;2023-04-09T20:59:38;82.43;;;36.70;;
21927;SDS011;11128;51.096;17.190;2023-04-09T21:04:40;86.47;;;38.95;;
21927;SDS011;11128;51.096;17.190;2023-04-09T21:09:41;81.55;;;36.40;;
21927;SDS011;11128;51.096;17.190;2023-04-09T21:14:42;84.30;;;37.22;;
21927;SDS011;11128;51.096;17.190;2023-04-09T21:19:43;79.47;;;34.60;;
21927;SDS011;11128;51.096;17.190;2023-04-09T21:24:45;93.07;;;39.30;;
21927;SDS011;11128;51.096;17.190;2023-04-09T21:29:46;94.25;;;41.08;;
21927;SDS011;11128;51.096;17.190;2023-04-09T21:34:47;91.18;;;39.13;;
21927;SDS011;11128;51.096;17.190;2023-04-09T21:39:48;99.85;;;41.15;;
21927;SDS011;11128;51.096;17.190;2023-04-09T21:44:49;82.25;;;37.78;;
21927;SDS011;11128;51.096;17.190;2023-04-09T21:49:50;83.78;;;38.05;;
21927;SDS011;11128;51.096;17.190;2023-04-09T21:54:52;81.43;;;35.75;;
21927;SDS011;11128;51.096;17.190;2023-04-09T21:59:53;78.03;;;35.33;;
21927;SDS011;11128;51.096;17.190;2023-04-09T22:04:54;73.75;;;32.85;;
21927;SDS011;11128;51.096;17.190;2023-04-09T22:09:55;92.90;;;38.30;;
21927;SDS011;11128;51.096;17.190;2023-04-09T22:14:57;93.95;;;40.33;;
21927;SDS011;11128;51.096;17.190;2023-04-09T22:19:58;88.50;;;37.42;;
21927;SDS011;11128;51.096;17.190;2023-04-09T22:25:00;87.63;;;37.60;;
21927;SDS011;11128;51.096;17.190;2023-04-09T22:30:01;91.78;;;40.08;;
21927;SDS011;11128;51.096;17.190;2023-04-09T22:35:03;94.53;;;41.00;;
21927;SDS011;11128;51.096;17.190;2023-04-09T22:40:04;85.18;;;38.95;;
21927;SDS011;11128;51.096;17.190;2023-04-09T22:45:12;81.63;;;36.75;;
21927;SDS011;11128;51.096;17.190;2023-04-09T22:50:13;81.32;;;37.28;;
21927;SDS011;11128;51.096;17.190;2023-04-09T22:55:15;84.13;;;38.17;;
21927;SDS011;11128;51.096;17.190;2023-04-09T23:00:16;75.47;;;34.38;;
21927;SDS011;11128;51.096;17.190;2023-04-09T23:05:17;77.45;;;35.05;;
21927;SDS011;11128;51.096;17.190;2023-04-09T23:10:19;71.10;;;32.10;;
21927;SDS011;11128;51.096;17.190;2023-04-09T23:15:20;69.47;;;31.88;;
21927;SDS011;11128;51.096;17.190;2023-04-09T23:20:21;71.63;;;32.63;;
21927;SDS011;11128;51.096;17.190;2023-04-09T23:25:23;63.28;;;30.00;;
21927;SDS011;11128;51.096;17.190;2023-04-09T23:30:24;63.40;;;29.33;;
21927;SDS011;11128;51.096;17.190;2023-04-09T23:35:25;62.08;;;29.02;;
21927;SDS011;11128;51.096;17.190;2023-04-09T23:40:26;65.13;;;29.48;;
21927;SDS011;11128;51.096;17.190;2023-04-09T23:45:27;97.85;;;31.77;;
21927;SDS011;11128;51.096;17.190;2023-04-09T23:50:29;66.97;;;29.77;;
21927;SDS011;11128;51.096;17.190;2023-04-09T23:55:30;77.60;;;28.10;;
